Flight Track Log - Related Links

Times and Time Zones

All times are in EDT time to prevent confusion due to time zone crossing. See the VH-IGQ flight status page for this flight to view local times or setup timezone preferences in your user account.

Time Position Orientation Groundspeed Altitude Reporting Facility
EDT Latitude Longitude Course Direction KTS MPH feet Rate Location/Type
Sun 08:39:29 PM -32.6151 149.6693 127° Southeast 9,000  Level Aus ATC (Calculated)
Sun 08:39:45 PM -32.6151 149.6693 127° Southeast 9,000 -750 Level Aus ATC (Calculated)
Sun 08:40:29 PM -32.6151 149.6693 127° Southeast 9,000 -829 Level Aus ATC (Calculated)
Sun 08:42:00 PM -32.6593 149.7182 137° Southeast  Level FlightAware Approximate
Sun 08:42:17 PM -32.6364 149.7024 137° Southeast 125 144 6,900  Level Aus ATC (RADAR)
Sun 08:42:42 PM -32.6483 149.7114 148° Southeast 125 144 7,200 758 Climbing Aus ATC (RADAR)
Sun 08:43:52 PM -32.6791 149.7369 145° Southeast 117 135 8,100 720 Climbing Aus ATC (RADAR)
Sun 08:44:22 PM -32.6909 149.7524 132° Southeast 123 142 8,400 545 Climbing Aus ATC (RADAR)
Sun 08:44:47 PM -32.7024 149.7627 143° Southeast 124 143 8,600 600 Climbing Aus ATC (RADAR)
Sun 08:45:22 PM -32.7172 149.7794 137° Southeast 125 144 9,000 240 Climbing Aus ATC (RADAR)
Sun 08:46:02 PM -32.7363 149.8008 136° Southeast 143 165 8,900 80 Descending Aus ATC (RADAR)
Sun 08:46:37 PM -32.7560 149.8199 141° Southeast 152 175 9,100 75 Climbing Aus ATC (RADAR)
Sun 08:47:22 PM -32.7797 149.8480 135° Southeast 157 181 9,000 -81 Descending Aus ATC (RADAR)
Sun 08:47:51 PM -32.7964 149.8638 142° Southeast 162 186 9,000  Level Aus ATC (RADAR)
Sun 08:48:57 PM -32.8322 149.9056 136° Southeast 159 183 9,000  Level Aus ATC (RADAR)
Sun 08:49:22 PM -32.8458 149.9207 137° Southeast 158 182 9,000  Level Aus ATC (RADAR)
Sun 08:49:51 PM -32.8619 149.9366 140° Southeast 159 183 9,000 94 Level Aus ATC (RADAR)
Sun 08:50:26 PM -32.8802 149.9589 134° Southeast 158 182 9,100  Climbing Aus ATC (RADAR)
Sun 08:51:12 PM -32.9067 149.9869 139° Southeast 160 184 9,000 -75 Descending Aus ATC (RADAR)
Sun 08:51:46 PM -32.9263 150.0075 139° Southeast 157 181 9,000  Level Aus ATC (RADAR)
Sun 08:52:36 PM -32.9528 150.0396 135° Southeast 161 185 9,000  Level Aus ATC (RADAR)
Sun 08:53:01 PM -32.9675 150.0533 142° Southeast 158 182 9,000  Level Aus ATC (RADAR)
Sun 08:54:21 PM -33.0107 150.1036 136° Southeast 159 183 9,000  Level Aus ATC (RADAR)
Sun 08:54:46 PM -33.0252 150.1176 141° Southeast 158 182 9,000  Level Aus ATC (RADAR)
Sun 08:55:21 PM -33.0430 150.1419 131° Southeast 161 185 9,000  Level Aus ATC (RADAR)
Sun 08:56:01 PM -33.0659 150.1652 139° Southeast 161 185 9,000  Level Aus ATC (RADAR)
Sun 08:56:36 PM -33.0851 150.1864 137° Southeast 158 182 9,000  Level Aus ATC (RADAR)
Sun 08:57:21 PM -33.1088 150.2155 134° Southeast 160 184 9,000  Level Aus ATC (RADAR)
Sun 08:57:50 PM -33.1254 150.2314 141° Southeast 162 186 9,000  Level Aus ATC (RADAR)
Sun 08:58:25 PM -33.1439 150.2531 136° Southeast 159 183 9,000  Level Aus ATC (RADAR)
Sun 08:59:25 PM -33.1772 150.2893 138° Southeast 162 186 9,000  Level Aus ATC (RADAR)
Sun 08:59:51 PM -33.1916 150.3052 137° Southeast 157 181 9,000  Level Aus ATC (RADAR)
Sun 09:00:26 PM -33.2093 150.3294 131° Southeast 157 181 9,000  Level Aus ATC (RADAR)
Sun 09:01:01 PM -33.2290 150.3491 140° Southeast 153 176 9,000  Level Aus ATC (RADAR)
Sun 09:01:36 PM -33.2481 150.3705 137° Southeast 155 178 9,000  Level Aus ATC (RADAR)
Sun 09:02:25 PM -33.2744 150.4022 135° Southeast 156 180 9,000  Level Aus ATC (RADAR)
Sun 09:02:50 PM -33.2892 150.4161 142° Southeast 158 182 9,000  Level Aus ATC (RADAR)
Sun 09:03:25 PM -33.3071 150.4385 134° Southeast 158 182 9,000 -55 Level Aus ATC (RADAR)
Sun 09:04:39 PM -33.3482 150.4815 139° Southeast 159 183 8,900 -60 Descending Aus ATC (RADAR)
Sun 09:05:05 PM -33.3617 150.5003 131° Southeast 157 181 8,900 -98 Level Aus ATC (RADAR)
Sun 09:05:40 PM -33.3809 150.5218 137° Southeast 158 182 8,800 -360 Descending Aus ATC (RADAR)
Sun 09:06:45 PM -33.4163 150.5611 137° Southeast 156 180 8,300 -480 Descending Aus ATC (RADAR)
Sun 09:07:20 PM -33.4352 150.5825 137° Southeast 154 177 8,000 -480 Descending Aus ATC (RADAR)
Sun 09:08:00 PM -33.4573 150.6062 138° Southeast 155 178 7,700 -720 Descending Aus ATC (RADAR)
Sun 09:08:35 PM -33.4751 150.6305 131° Southeast 160 184 7,100 -789 Descending Aus ATC (RADAR)
Sun 09:09:54 PM -33.5193 150.6783 138° Southeast 157 181 6,200 -686 Descending Aus ATC (RADAR)
Sun 09:10:20 PM -33.5320 150.6959 131° Southeast 152 175 5,900 -492 Descending Aus ATC (RADAR)
Sun 09:10:55 PM -33.5509 150.7164 138° Southeast 152 175 5,700 -608 Descending Aus ATC (RADAR)
Sun 09:11:39 PM -33.5749 150.7428 137° Southeast 150 173 5,100 -723 Descending Aus ATC (RADAR)
Sun 09:12:18 PM -33.5945 150.7655 136° Southeast 152 175 4,700 -635 Descending Aus ATC (RADAR)
Sun 09:13:04 PM -33.6220 150.7884 145° Southeast 151 174 4,200 -761 Descending Aus ATC (RADAR)
Sun 09:13:29 PM -33.6373 150.7989 150° Southeast 146 168 3,800 -626 Descending Aus ATC (RADAR)
Sun 09:14:59 PM -33.6893 150.8326 152° Southeast 133 153 3,000 -495 Descending Aus ATC (RADAR)
Sun 09:15:18 PM -33.6995 150.8390 152° Southeast 135 155 2,900 -333 Descending Aus ATC (RADAR)
Sun 09:15:53 PM -33.7186 150.8507 153° Southeast 132 152 2,700 -296 Descending Aus ATC (RADAR)
Sun 09:16:39 PM -33.7431 150.8657 153° Southeast 123 142 2,500 -370 Descending Aus ATC (RADAR)
Sun 09:17:14 PM -33.7621 150.8767 154° Southeast 127 146 2,200 -400 Descending Aus ATC (RADAR)
Sun 09:18:09 PM -33.7928 150.8950 154° Southeast 131 151 1,900 -343 Descending Aus ATC (RADAR)
Sun 09:18:24 PM -33.8014 150.8999 155° Southeast 132 152 1,800 -245 Descending Aus ATC (RADAR)
Sun 09:19:47 PM -33.8512 150.9239 158° South 135 155 1,500 -254 Descending Aus ATC (RADAR)
Sun 09:20:22 PM -33.8692 150.9319 160° South 119 137 1,300 -462 Descending Aus ATC (RADAR)
Sun 09:20:39 PM -33.8774 150.9351 162° South 111 128 1,100 -577 Descending Aus ATC (RADAR)
Sun 09:21:14 PM -33.8927 150.9419 160° South 98 113 800 -380 Descending Aus ATC (RADAR)
Sun 09:21:58 PM -33.9037 150.9577 130° Southeast 83 96 600 -380 Descending Aus ATC (RADAR)
Sun 09:22:33 PM -33.9113 150.9705 125° Southeast 78 90 300 -514 Descending Aus ATC (RADAR)

Login

Don't have an account? Register now (free) for customized features, flight alerts, and more!